Time;durP1;ratioP1;P1;durP2;ratioP2;P2;SDS_P1;SDS_P2;PMS_P1;PMS_P2;Temp;Humidity;BMP_temperature;BMP_pressure;BME280_temperature;BME280_humidity;BME280_pressure;Samples;Min_cycle;Max_cycle;Signal;HPM_P1;HPM_P2
2023/12/29 19:44:17;;;;;;;20.58;16.08;;;4.80;99.90;;;;;;6224179;22;1324845;-71
2023/12/29 19:46:43;;;;;;;19.00;15.32;;;4.70;99.90;;;;;;6228995;23;20509;-65
2023/12/29 19:49:12;;;;;;;20.02;16.67;;;4.60;99.90;;;;;;6229944;22;20062;-64
2023/12/29 19:51:38;;;;;;;25.95;18.65;;;4.60;99.90;;;;;;6227388;22;20063;-62
2023/12/29 19:54:04;;;;;;;31.63;19.05;;;4.70;99.90;;;;;;6231004;23;20443;-62
2023/12/29 19:56:30;;;;;;;28.55;18.20;;;4.70;99.90;;;;;;6228673;22;20012;-63
2023/12/29 19:58:56;;;;;;;20.80;15.23;;;4.70;99.90;;;;;;6230044;22;20468;-62
2023/12/29 20:01:23;;;;;;;27.90;16.80;;;4.60;99.90;;;;;;6228579;23;20090;-62
2023/12/29 20:03:48;;;;;;;24.65;16.38;;;4.50;99.90;;;;;;6230265;22;20295;-69
2023/12/29 20:06:24;;;;;;;23.10;16.33;;;4.40;99.90;;;;;;6228159;23;20197;-70
2023/12/29 20:08:51;;;;;;;23.67;16.83;;;4.40;99.90;;;;;;6229936;22;20027;-70
2023/12/29 20:11:17;;;;;;;22.20;16.88;;;4.30;99.90;;;;;;6219151;22;20055;-69
2023/12/29 20:13:43;;;;;;;23.17;16.65;;;4.30;99.90;;;;;;6201751;23;20006;-70
2023/12/29 20:16:08;;;;;;;21.38;14.82;;;4.20;99.90;;;;;;6199671;23;20051;-70
2023/12/29 20:18:35;;;;;;;21.25;15.13;;;4.10;99.90;;;;;;6199985;23;20016;-70
2023/12/29 20:21:01;;;;;;;27.38;17.42;;;4.10;99.90;;;;;;6199364;23;20030;-69
2023/12/29 20:23:28;;;;;;;26.50;18.27;;;4.00;99.90;;;;;;6199748;23;20004;-67
2023/12/29 20:25:54;;;;;;;25.13;18.23;;;4.10;99.90;;;;;;6199852;23;20799;-67
2023/12/29 20:28:20;;;;;;;24.83;18.50;;;4.00;99.90;;;;;;6199509;23;20005;-67
2023/12/29 20:30:47;;;;;;;35.08;22.88;;;4.00;99.90;;;;;;6199727;23;20005;-66
2023/12/29 20:33:12;;;;;;;55.20;34.17;;;4.00;99.90;;;;;;6196066;23;20012;-67
2023/12/29 20:35:41;;;;;;;32.70;22.52;;;4.10;99.90;;;;;;6200534;23;20055;-66
2023/12/29 20:38:06;;;;;;;23.88;18.10;;;4.10;99.90;;;;;;6201233;23;20016;-67
2023/12/29 20:40:32;;;;;;;35.45;22.55;;;3.90;99.90;;;;;;6200969;23;20027;-67
2023/12/29 20:42:59;;;;;;;47.28;28.02;;;3.60;99.90;;;;;;6200860;23;20005;-59
2023/12/29 20:45:24;;;;;;;74.13;45.40;;;3.30;99.90;;;;;;6200295;23;20050;-59
2023/12/29 20:47:51;;;;;;;73.55;43.45;;;3.40;99.90;;;;;;6200757;23;20030;-62
2023/12/29 20:50:17;;;;;;;42.22;28.38;;;3.40;99.90;;;;;;6197981;23;20788;-62
2023/12/29 20:52:43;;;;;;;73.35;44.72;;;3.50;99.90;;;;;;6200252;23;20011;-62
2023/12/29 20:55:08;;;;;;;50.55;34.08;;;3.60;99.90;;;;;;6200763;23;20004;-61
2023/12/29 20:57:34;;;;;;;42.97;28.70;;;3.60;99.90;;;;;;6201533;23;20023;-61
2023/12/29 21:00:00;;;;;;;24.98;17.65;;;3.60;99.90;;;;;;6201057;23;20001;-70
2023/12/29 21:02:27;;;;;;;23.67;16.88;;;3.60;99.90;;;;;;6201907;23;20091;-68
2023/12/29 21:04:53;;;;;;;46.58;30.70;;;3.50;99.90;;;;;;6200490;23;20036;-68
2023/12/29 21:07:18;;;;;;;43.85;30.40;;;3.50;99.90;;;;;;6200391;23;20005;-68
2023/12/29 21:09:45;;;;;;;48.33;31.83;;;3.50;99.90;;;;;;6198722;23;20009;-68
2023/12/29 21:12:10;;;;;;;35.50;21.75;;;3.60;99.90;;;;;;6200497;23;20004;-68
2023/12/29 21:14:37;;;;;;;46.17;31.02;;;3.50;99.90;;;;;;6200816;23;20135;-68
2023/12/29 21:17:04;;;;;;;39.78;27.10;;;3.50;99.90;;;;;;6196179;23;20015;-68
2023/12/29 21:19:30;;;;;;;22.90;16.08;;;3.50;99.90;;;;;;6198677;23;20008;-68
2023/12/29 21:21:56;;;;;;;19.77;15.07;;;3.20;99.90;;;;;;6198128;23;20079;-68
2023/12/29 21:24:21;;;;;;;27.80;20.23;;;3.10;99.90;;;;;;6196254;23;20715;-68
2023/12/29 21:26:47;;;;;;;26.75;19.35;;;3.00;99.90;;;;;;6197603;23;20032;-68
2023/12/29 21:29:13;;;;;;;24.45;19.25;;;3.10;99.90;;;;;;6196059;23;20047;-68
2023/12/29 21:31:39;;;;;;;38.00;27.00;;;3.10;99.90;;;;;;6191987;23;20034;-67
2023/12/29 21:34:04;;;;;;;29.75;21.52;;;3.20;99.90;;;;;;6194816;23;20000;-68
2023/12/29 21:36:30;;;;;;;36.60;26.35;;;3.20;99.90;;;;;;6195942;23;20001;-61
2023/12/29 21:38:57;;;;;;;41.63;29.13;;;3.20;99.90;;;;;;6198346;23;20095;-66
2023/12/29 21:41:23;;;;;;;34.70;24.55;;;3.20;99.90;;;;;;6198515;23;20135;-67
2023/12/29 21:43:49;;;;;;;34.65;23.90;;;2.90;99.90;;;;;;6199140;23;20300;-66
2023/12/29 21:46:15;;;;;;;54.42;40.20;;;2.70;99.90;;;;;;6199751;23;20024;-66
2023/12/29 21:48:41;;;;;;;97.47;68.43;;;2.60;99.90;;;;;;6199275;23;20030;-66
2023/12/29 21:51:10;;;;;;;73.82;48.22;;;2.80;99.90;;;;;;6195796;23;20000;-66
2023/12/29 21:53:37;;;;;;;64.50;44.90;;;2.90;99.90;;;;;;6200296;23;20017;-66
2023/12/29 21:56:03;;;;;;;68.85;46.30;;;3.00;99.90;;;;;;6199571;23;20011;-66
2023/12/29 21:58:30;;;;;;;71.57;45.20;;;3.10;99.90;;;;;;6200642;23;20048;-66
2023/12/29 22:00:58;;;;;;;67.03;43.10;;;3.00;99.90;;;;;;6199318;23;20004;-66
2023/12/29 22:03:24;;;;;;;74.18;45.67;;;2.70;99.90;;;;;;6198846;23;20091;-66
2023/12/29 22:05:50;;;;;;;69.53;43.83;;;2.80;99.90;;;;;;6197919;23;20001;-66
2023/12/29 22:08:15;;;;;;;66.57;43.08;;;2.90;99.90;;;;;;6198897;23;20009;-66
2023/12/29 22:10:41;;;;;;;53.38;37.17;;;3.00;99.90;;;;;;6200450;23;20058;-66
2023/12/29 22:13:07;;;;;;;61.72;39.67;;;2.90;99.90;;;;;;6199986;23;20004;-61
2023/12/29 22:15:32;;;;;;;53.00;36.58;;;3.00;99.90;;;;;;6196961;23;20787;-66
2023/12/29 22:17:59;;;;;;;50.05;33.05;;;3.10;99.90;;;;;;6197412;23;20024;-66
2023/12/29 22:20:25;;;;;;;51.90;33.95;;;3.00;99.90;;;;;;6194933;23;20313;-66
2023/12/29 22:22:52;;;;;;;41.45;28.83;;;3.00;99.90;;;;;;6192327;23;20009;-66
2023/12/29 22:25:18;;;;;;;46.45;31.63;;;3.00;99.90;;;;;;6198590;23;20058;-67
2023/12/29 22:27:44;;;;;;;41.83;29.73;;;2.90;99.90;;;;;;6199029;23;20093;-66
2023/12/29 22:30:11;;;;;;;40.55;28.55;;;2.80;99.90;;;;;;6198816;23;20013;-66
2023/12/29 22:32:38;;;;;;;49.47;27.90;;;2.80;99.90;;;;;;6197580;23;20005;-66
2023/12/29 22:35:04;;;;;;;49.42;29.17;;;2.80;99.90;;;;;;6197229;23;20067;-67
2023/12/29 22:37:31;;;;;;;53.17;27.27;;;2.80;99.90;;;;;;6199409;23;20731;-67
2023/12/29 22:39:57;;;;;;;44.80;30.17;;;2.70;99.90;;;;;;6199011;23;20447;-67
2023/12/29 22:42:24;;;;;;;47.00;28.95;;;2.70;99.90;;;;;;6199017;23;20007;-68
2023/12/29 22:44:50;;;;;;;50.97;28.55;;;2.70;99.90;;;;;;6198633;23;20019;-68
2023/12/29 22:47:15;;;;;;;53.42;29.15;;;2.60;99.90;;;;;;6191580;23;20592;-67
2023/12/29 22:49:41;;;;;;;43.05;29.08;;;2.60;99.90;;;;;;6199371;23;20074;-67
2023/12/29 22:52:07;;;;;;;42.35;27.60;;;2.60;99.90;;;;;;6198066;23;20005;-68
2023/12/29 22:54:32;;;;;;;35.88;25.60;;;2.60;99.90;;;;;;6199125;23;20005;-67
2023/12/29 22:56:58;;;;;;;39.45;27.60;;;2.60;99.90;;;;;;6195265;23;20691;-67
2023/12/29 22:59:23;;;;;;;37.13;26.63;;;2.60;99.90;;;;;;6198701;23;20068;-67
2023/12/29 23:01:49;;;;;;;37.67;26.58;;;2.70;99.90;;;;;;6199949;23;20130;-66
2023/12/29 23:04:15;;;;;;;37.45;25.98;;;2.70;99.90;;;;;;6198552;23;20687;-66
2023/12/29 23:06:41;;;;;;;39.85;26.65;;;2.70;99.90;;;;;;6196333;23;20032;-66
2023/12/29 23:09:06;;;;;;;36.85;26.38;;;2.80;99.90;;;;;;6196190;23;20008;-66
2023/12/29 23:11:32;;;;;;;46.05;28.48;;;2.80;99.90;;;;;;6198480;23;20097;-65
2023/12/29 23:13:58;;;;;;;48.13;31.17;;;2.90;99.90;;;;;;6200072;23;20004;-65
2023/12/29 23:16:24;;;;;;;50.03;31.13;;;2.90;99.90;;;;;;6200818;23;20831;-66
2023/12/29 23:18:54;;;;;;;47.13;31.58;;;2.90;99.90;;;;;;6199646;23;20028;-66
2023/12/29 23:21:20;;;;;;;47.90;31.20;;;2.70;99.90;;;;;;6199350;23;20000;-65
2023/12/29 23:23:46;;;;;;;53.90;32.97;;;2.40;99.90;;;;;;6199965;23;20628;-65
2023/12/29 23:26:12;;;;;;;52.33;32.40;;;2.10;99.90;;;;;;6199627;23;20005;-65
2023/12/29 23:28:37;;;;;;;44.63;30.40;;;2.10;99.90;;;;;;6200706;23;20009;-65
2023/12/29 23:31:03;;;;;;;49.40;26.95;;;2.20;99.90;;;;;;6194928;23;20004;-65
2023/12/29 23:33:29;;;;;;;42.83;29.63;;;2.20;99.90;;;;;;6199478;23;20035;-65
2023/12/29 23:35:54;;;;;;;46.28;32.63;;;2.20;99.90;;;;;;6196183;23;20076;-65
2023/12/29 23:38:23;;;;;;;49.97;32.83;;;2.20;99.90;;;;;;6201236;23;20417;-65
2023/12/29 23:40:49;;;;;;;46.65;30.60;;;2.20;99.90;;;;;;6198874;23;20051;-65
2023/12/29 23:43:14;;;;;;;46.78;31.88;;;2.10;99.90;;;;;;6199161;23;20687;-65
2023/12/29 23:45:40;;;;;;;47.03;32.92;;;2.20;99.90;;;;;;6201175;23;20079;-61
2023/12/29 23:48:06;;;;;;;47.10;32.58;;;2.30;99.90;;;;;;6200429;23;20008;-61
2023/12/29 23:50:32;;;;;;;43.40;30.88;;;2.40;99.90;;;;;;6200048;23;20005;-61
2023/12/29 23:52:59;;;;;;;38.55;28.05;;;2.40;99.90;;;;;;6200615;23;20008;-61
2023/12/29 23:55:26;;;;;;;45.42;31.63;;;2.50;99.90;;;;;;6196057;23;20000;-60
2023/12/29 23:57:52;;;;;;;44.20;32.17;;;2.40;99.90;;;;;;6201349;23;20017;-60
